createdAt,value
2023-02-08T00:01:34.876Z,82.30
2023-02-08T00:04:03.766Z,82.30
2023-02-08T00:06:32.817Z,82.10
2023-02-08T00:09:02.430Z,82.20
2023-02-08T00:11:35.501Z,82.30
2023-02-08T00:14:04.530Z,82.40
2023-02-08T00:16:33.443Z,82.30
2023-02-08T00:19:02.342Z,82.50
2023-02-08T00:21:31.345Z,82.60
2023-02-08T00:24:00.498Z,82.50
2023-02-08T00:26:29.418Z,82.60
2023-02-08T00:28:58.320Z,82.60
2023-02-08T00:31:27.341Z,82.80
2023-02-08T00:33:56.283Z,82.90
2023-02-08T00:36:25.255Z,83.00
2023-02-08T00:38:54.138Z,82.70
2023-02-08T00:41:23.080Z,82.60
2023-02-08T00:43:51.969Z,82.80
2023-02-08T00:46:21.747Z,82.90
2023-02-08T00:48:50.800Z,83.70
2023-02-08T00:51:19.692Z,82.70
2023-02-08T00:53:48.684Z,82.70
2023-02-08T00:56:18.159Z,82.50
2023-02-08T00:58:47.183Z,82.50
2023-02-08T01:01:16.447Z,82.60
2023-02-08T01:03:46.360Z,82.70
2023-02-08T01:06:18.111Z,82.50
2023-02-08T01:08:47.022Z,82.60
2023-02-08T01:11:23.497Z,82.40
2023-02-08T01:13:58.418Z,82.40
2023-02-08T01:16:29.954Z,81.90
2023-02-08T01:19:00.478Z,81.80
2023-02-08T01:21:32.768Z,81.60
2023-02-08T01:24:02.040Z,81.30
2023-02-08T01:26:31.455Z,81.10
2023-02-08T01:29:00.616Z,81.20
2023-02-08T01:31:34.834Z,80.90
2023-02-08T01:34:05.459Z,80.60
2023-02-08T01:36:35.462Z,80.70
2023-02-08T01:39:05.460Z,80.50
2023-02-08T01:41:37.826Z,80.50
2023-02-08T01:44:15.628Z,80.30
2023-02-08T01:46:52.777Z,80.90
2023-02-08T01:49:33.402Z,80.20
2023-02-08T01:52:22.245Z,80.00
2023-02-08T01:55:01.653Z,80.40
2023-02-08T01:57:31.281Z,80.30
2023-02-08T02:00:06.311Z,80.30
2023-02-08T02:02:37.386Z,80.40
2023-02-08T02:05:06.797Z,80.40
2023-02-08T02:07:35.838Z,80.40
2023-02-08T02:10:24.439Z,80.20
2023-02-08T02:12:55.132Z,80.30
2023-02-08T02:15:24.237Z,80.00
2023-02-08T02:17:53.391Z,79.70
2023-02-08T02:20:39.948Z,79.60
2023-02-08T02:23:36.508Z,79.30
2023-02-08T02:26:26.843Z,79.20
2023-02-08T02:29:16.916Z,79.00
2023-02-08T02:32:24.061Z,78.60
2023-02-08T02:34:58.619Z,78.30
2023-02-08T02:38:02.099Z,78.80
2023-02-08T02:41:05.613Z,77.50
2023-02-08T02:43:47.362Z,77.00
2023-02-08T02:46:31.984Z,76.40
2023-02-08T02:49:22.551Z,76.40
2023-02-08T02:52:00.001Z,75.60
2023-02-08T02:54:33.432Z,75.60
2023-02-08T02:57:07.169Z,74.70
2023-02-08T02:59:37.108Z,75.20
2023-02-08T03:02:06.859Z,71.60
2023-02-08T03:04:35.825Z,73.80
2023-02-08T03:07:21.346Z,73.70
2023-02-08T03:10:18.120Z,73.30
2023-02-08T03:12:59.357Z,73.30
2023-02-08T03:15:52.780Z,72.80
2023-02-08T03:18:42.636Z,72.50
2023-02-08T03:21:44.607Z,73.00
2023-02-08T03:24:24.533Z,72.40
2023-02-08T03:27:12.911Z,73.10
2023-02-08T03:29:50.960Z,72.60
2023-02-08T03:32:43.486Z,72.90
2023-02-08T03:35:52.611Z,72.20
2023-02-08T03:38:33.210Z,71.00
2023-02-08T03:41:05.936Z,71.90
2023-02-08T03:43:57.737Z,72.00
2023-02-08T03:46:32.406Z,70.80
2023-02-08T03:49:23.583Z,71.20
2023-02-08T03:51:56.106Z,69.70
2023-02-08T03:54:28.074Z,70.70
2023-02-08T03:57:14.113Z,70.00
2023-02-08T03:59:45.250Z,69.60
2023-02-08T04:02:19.658Z,69.60
2023-02-08T04:04:51.668Z,68.90
2023-02-08T04:07:21.507Z,67.00
2023-02-08T04:09:50.722Z,67.20
2023-02-08T04:12:19.672Z,68.50
2023-02-08T04:15:06.882Z,68.60
2023-02-08T04:17:35.820Z,68.70
2023-02-08T04:20:04.902Z,68.10
2023-02-08T04:22:34.709Z,68.40
2023-02-08T04:25:03.690Z,67.70
2023-02-08T04:27:32.601Z,67.50
2023-02-08T04:30:01.496Z,68.10
2023-02-08T04:32:30.473Z,67.50
2023-02-08T04:35:17.952Z,67.20
2023-02-08T04:37:46.971Z,65.20
2023-02-08T04:40:15.975Z,66.70
2023-02-08T04:42:45.009Z,66.80
2023-02-08T04:45:14.033Z,65.00
2023-02-08T04:47:42.985Z,65.70
2023-02-08T04:50:12.918Z,66.20
2023-02-08T04:52:41.857Z,66.00
2023-02-08T04:55:10.818Z,65.70
2023-02-08T04:57:39.709Z,64.90
2023-02-08T05:00:09.311Z,64.40
2023-02-08T05:02:38.198Z,63.90
2023-02-08T05:05:07.398Z,64.70
2023-02-08T05:07:36.698Z,64.60
2023-02-08T05:10:08.398Z,65.50
2023-02-08T05:12:55.405Z,64.30
2023-02-08T05:15:24.404Z,64.80
2023-02-08T05:17:53.732Z,63.10
2023-02-08T05:20:22.863Z,63.90
2023-02-08T05:22:51.866Z,63.60
2023-02-08T05:25:21.107Z,63.60
2023-02-08T05:27:50.243Z,63.70
2023-02-08T05:30:19.371Z,63.60
2023-02-08T05:32:48.341Z,63.40
2023-02-08T05:35:17.394Z,63.40
2023-02-08T05:37:46.441Z,62.30
2023-02-08T05:40:15.472Z,61.60
2023-02-08T05:42:45.706Z,59.80
2023-02-08T05:45:15.270Z,60.80
2023-02-08T05:47:44.245Z,61.10
2023-02-08T05:50:13.233Z,59.80
2023-02-08T05:52:43.360Z,59.00
2023-02-08T05:55:12.408Z,60.10
2023-02-08T05:57:41.423Z,59.30
2023-02-08T06:00:11.094Z,59.00
2023-02-08T06:02:40.089Z,59.30
2023-02-08T06:05:09.432Z,58.80
2023-02-08T06:07:38.363Z,59.40
2023-02-08T06:10:09.395Z,59.00
2023-02-08T06:12:39.423Z,59.10
2023-02-08T06:15:08.685Z,58.80
2023-02-08T06:17:37.574Z,58.20
2023-02-08T06:20:07.604Z,57.90
2023-02-08T06:22:36.808Z,58.30
2023-02-08T06:25:06.213Z,57.80
2023-02-08T06:27:35.125Z,57.40
2023-02-08T06:30:04.416Z,58.10
2023-02-08T06:32:33.872Z,57.40
2023-02-08T06:35:02.846Z,57.30
2023-02-08T06:37:31.835Z,57.40
2023-02-08T06:40:02.989Z,57.10
2023-02-08T06:42:49.958Z,57.20
2023-02-08T06:45:19.639Z,57.60
2023-02-08T06:47:48.606Z,57.50
2023-02-08T06:50:17.732Z,57.30
2023-02-08T06:52:46.719Z,57.50
2023-02-08T06:55:16.120Z,57.30
2023-02-08T06:57:45.131Z,57.80
2023-02-08T07:00:14.628Z,58.10
2023-02-08T07:02:43.578Z,58.00
2023-02-08T07:05:12.548Z,57.20
2023-02-08T07:07:41.587Z,57.70
2023-02-08T07:10:10.884Z,56.80
2023-02-08T07:12:40.143Z,58.30
2023-02-08T07:15:09.470Z,58.50
2023-02-08T07:17:38.378Z,57.80
2023-02-08T07:20:07.762Z,57.30
2023-02-08T07:22:55.121Z,57.20
2023-02-08T07:25:24.205Z,54.90
2023-02-08T07:27:53.618Z,58.10
2023-02-08T07:30:41.361Z,58.10
2023-02-08T07:33:10.432Z,57.60
2023-02-08T07:35:39.382Z,58.10
2023-02-08T07:38:08.237Z,57.90
2023-02-08T07:40:37.293Z,58.20
2023-02-08T07:43:06.353Z,57.80
2023-02-08T07:45:35.347Z,58.00
2023-02-08T07:48:04.282Z,56.80
2023-02-08T07:50:33.238Z,57.30
2023-02-08T07:53:02.133Z,57.80
2023-02-08T07:55:31.059Z,57.80
2023-02-08T07:58:00.695Z,57.10
2023-02-08T08:00:29.723Z,57.10
2023-02-08T08:03:17.124Z,57.40
2023-02-08T08:05:46.049Z,57.20
2023-02-08T08:08:15.135Z,57.70
2023-02-08T08:10:44.242Z,57.90
2023-02-08T08:13:13.553Z,58.50
2023-02-08T08:15:42.537Z,58.90
2023-02-08T08:18:11.666Z,59.20
2023-02-08T08:20:40.827Z,59.30
2023-02-08T08:23:10.202Z,59.00
2023-02-08T08:25:39.879Z,59.50
2023-02-08T08:28:08.917Z,59.60
2023-02-08T08:30:38.022Z,59.10
2023-02-08T08:33:08.101Z,58.90
2023-02-08T08:35:37.221Z,59.30
2023-02-08T08:38:06.294Z,58.70
2023-02-08T08:40:35.284Z,59.00
2023-02-08T08:43:04.250Z,58.90
2023-02-08T08:45:34.296Z,58.60
2023-02-08T08:48:04.413Z,58.90
2023-02-08T08:50:33.449Z,58.80
2023-02-08T08:53:02.376Z,58.70
2023-02-08T08:55:31.330Z,58.10
2023-02-08T08:58:00.283Z,58.60
2023-02-08T09:00:29.192Z,58.50
2023-02-08T09:02:58.326Z,58.70
2023-02-08T09:05:27.447Z,58.80
2023-02-08T09:07:56.614Z,59.00
2023-02-08T09:10:25.518Z,59.20
2023-02-08T09:12:54.524Z,58.70
2023-02-08T09:15:23.445Z,59.10
2023-02-08T09:17:52.465Z,59.20
2023-02-08T09:20:21.596Z,59.40
2023-02-08T09:22:50.881Z,58.90
2023-02-08T09:25:19.967Z,58.70
2023-02-08T09:27:49.001Z,58.50
2023-02-08T09:30:18.033Z,58.80
2023-02-08T09:32:47.210Z,59.10
2023-02-08T09:35:18.179Z,58.90
2023-02-08T09:37:47.115Z,58.80
2023-02-08T09:40:35.488Z,59.00
2023-02-08T09:43:50.008Z,58.40
2023-02-08T09:46:19.899Z,58.00
2023-02-08T09:48:52.090Z,57.00
2023-02-08T09:51:32.022Z,58.60
2023-02-08T09:54:10.023Z,58.60
2023-02-08T09:56:43.278Z,58.80
2023-02-08T09:59:19.773Z,58.80
2023-02-08T10:01:52.116Z,59.20
2023-02-08T10:04:26.178Z,59.40
2023-02-08T10:06:55.355Z,59.60
2023-02-08T10:09:28.424Z,59.80
2023-02-08T10:12:03.602Z,59.90
2023-02-08T10:14:44.888Z,59.80
2023-02-08T10:17:43.141Z,60.00
2023-02-08T10:20:30.172Z,59.60
2023-02-08T10:23:26.196Z,59.90
2023-02-08T10:26:11.453Z,59.90
2023-02-08T10:28:58.978Z,60.10
2023-02-08T10:31:29.936Z,60.00
2023-02-08T10:34:06.239Z,60.30
2023-02-08T10:36:44.192Z,60.50
2023-02-08T10:39:35.780Z,61.40
2023-02-08T10:42:06.318Z,60.60
2023-02-08T10:44:44.887Z,60.70
2023-02-08T10:47:35.891Z,60.70
2023-02-08T10:50:30.287Z,61.00
2023-02-08T10:52:59.455Z,61.10
2023-02-08T10:55:28.553Z,61.10
2023-02-08T10:58:01.306Z,62.10
2023-02-08T11:00:35.011Z,61.30
2023-02-08T11:03:16.755Z,61.50
2023-02-08T11:05:46.690Z,61.60
2023-02-08T11:08:20.652Z,61.70
2023-02-08T11:11:11.568Z,61.80
2023-02-08T11:13:45.535Z,62.90
2023-02-08T11:16:26.231Z,62.10
2023-02-08T11:19:02.449Z,62.10
2023-02-08T11:21:37.789Z,62.20
2023-02-08T11:24:28.907Z,62.30
2023-02-08T11:26:58.463Z,62.40
2023-02-08T11:29:30.642Z,62.60
2023-02-08T11:32:26.642Z,62.50
2023-02-08T11:35:22.079Z,62.90
2023-02-08T11:38:01.739Z,62.90
2023-02-08T11:40:39.822Z,62.80
2023-02-08T11:43:09.322Z,63.00
2023-02-08T11:45:39.185Z,62.80
2023-02-08T11:48:24.236Z,63.00
2023-02-08T11:51:02.480Z,63.10
2023-02-08T11:53:47.449Z,63.20
2023-02-08T11:56:19.507Z,63.40
2023-02-08T11:59:03.301Z,63.50
2023-02-08T12:01:41.562Z,63.70
2023-02-08T12:04:17.311Z,63.90
2023-02-08T12:07:10.932Z,64.00
2023-02-08T12:10:13.073Z,64.00
2023-02-08T12:12:44.712Z,64.20
2023-02-08T12:15:29.133Z,64.10
2023-02-08T12:18:23.847Z,64.20
2023-02-08T12:21:30.662Z,64.60
2023-02-08T12:24:11.475Z,64.50
2023-02-08T12:26:46.277Z,64.70
2023-02-08T12:29:47.237Z,64.70
2023-02-08T12:32:22.440Z,65.30
2023-02-08T12:35:09.500Z,65.20
2023-02-08T12:38:20.854Z,65.00
2023-02-08T12:41:15.774Z,65.40
2023-02-08T12:43:50.958Z,65.40
2023-02-08T12:46:32.204Z,65.30
2023-02-08T12:49:50.071Z,65.40
2023-02-08T12:52:40.317Z,65.80
2023-02-08T12:55:25.003Z,65.60
2023-02-08T12:58:18.985Z,65.90
2023-02-08T13:00:49.878Z,65.80
2023-02-08T13:03:33.076Z,66.10
2023-02-08T13:06:04.303Z,66.20
2023-02-08T13:08:46.265Z,66.10
2023-02-08T13:11:44.019Z,66.40
2023-02-08T13:14:39.741Z,66.60
2023-02-08T13:17:43.157Z,66.80
2023-02-08T13:20:33.791Z,67.10
2023-02-08T13:23:07.950Z,67.00
2023-02-08T13:25:38.896Z,67.00
2023-02-08T13:28:12.734Z,67.10
2023-02-08T13:30:42.593Z,67.00
2023-02-08T13:33:23.907Z,67.30
2023-02-08T13:35:55.251Z,67.80
2023-02-08T13:38:36.583Z,67.80
2023-02-08T13:41:18.835Z,68.00
2023-02-08T13:43:50.668Z,68.00
2023-02-08T13:46:21.705Z,68.00
2023-02-08T13:49:02.587Z,68.30
2023-02-08T13:51:34.631Z,68.20
2023-02-08T13:54:03.488Z,68.50
2023-02-08T13:56:50.876Z,68.40
2023-02-08T13:59:29.112Z,69.00
2023-02-08T14:02:23.486Z,69.10
2023-02-08T14:05:02.128Z,69.40
2023-02-08T14:07:51.688Z,70.80
2023-02-08T14:10:27.664Z,69.80
2023-02-08T14:13:24.375Z,69.40
2023-02-08T14:16:27.693Z,70.20
2023-02-08T14:19:03.064Z,70.70
2023-02-08T14:21:36.537Z,69.90
2023-02-08T14:24:09.449Z,69.70
2023-02-08T14:26:39.206Z,70.30
2023-02-08T14:29:08.972Z,70.40
2023-02-08T14:31:44.889Z,70.40
2023-02-08T14:34:35.350Z,70.30
2023-02-08T14:37:20.401Z,71.10
2023-02-08T14:39:53.944Z,70.90
2023-02-08T14:42:58.608Z,71.00
2023-02-08T14:45:32.278Z,72.10
2023-02-08T14:48:31.549Z,73.80
2023-02-08T14:51:12.400Z,72.80
2023-02-08T14:54:02.861Z,72.00
2023-02-08T14:56:45.212Z,72.10
2023-02-08T14:59:18.290Z,72.30
2023-02-08T15:02:05.063Z,72.10
2023-02-08T15:04:42.863Z,73.00
2023-02-08T15:07:40.964Z,72.50
2023-02-08T15:10:18.765Z,73.50
2023-02-08T15:12:57.721Z,72.50
2023-02-08T15:15:34.078Z,72.40
2023-02-08T15:18:05.621Z,72.60
2023-02-08T15:20:37.026Z,72.70
2023-02-08T15:23:24.905Z,73.00
2023-02-08T15:25:58.152Z,72.60
2023-02-08T15:28:30.557Z,72.80
2023-02-08T15:31:01.522Z,73.20
2023-02-08T15:33:30.865Z,73.70
2023-02-08T15:36:09.935Z,73.10
2023-02-08T15:38:40.234Z,73.20
2023-02-08T15:41:13.464Z,73.90
2023-02-08T15:43:44.032Z,73.90
2023-02-08T15:46:28.812Z,73.70
2023-02-08T15:48:58.713Z,74.20
2023-02-08T15:51:28.580Z,73.90
2023-02-08T15:53:58.517Z,73.80
2023-02-08T15:56:42.414Z,73.50
2023-02-08T15:59:38.857Z,73.80
2023-02-08T16:02:29.341Z,73.90
2023-02-08T16:04:59.748Z,74.40
2023-02-08T16:07:39.171Z,74.00
2023-02-08T16:10:11.149Z,74.10
2023-02-08T16:12:40.114Z,74.10
2023-02-08T16:15:35.692Z,74.70
2023-02-08T16:18:04.806Z,75.00
2023-02-08T16:20:36.073Z,74.40
2023-02-08T16:23:24.733Z,74.40
2023-02-08T16:25:53.775Z,74.10
2023-02-08T16:28:30.404Z,74.10
2023-02-08T16:31:02.649Z,74.10
2023-02-08T16:33:33.424Z,74.40
2023-02-08T16:36:05.563Z,74.30
2023-02-08T16:38:36.139Z,74.00
2023-02-08T16:41:13.925Z,74.30
2023-02-08T16:43:48.965Z,74.50
2023-02-08T16:46:19.744Z,75.30
2023-02-08T16:48:57.205Z,74.80
2023-02-08T16:51:29.514Z,74.40
2023-02-08T16:54:03.713Z,74.50
2023-02-08T16:56:32.711Z,74.50
2023-02-08T16:59:01.799Z,74.40
2023-02-08T17:01:30.751Z,74.50
2023-02-08T17:03:59.827Z,74.50
2023-02-08T17:06:37.837Z,74.70
2023-02-08T17:09:10.217Z,74.70
2023-02-08T17:11:39.670Z,74.60
2023-02-08T17:14:11.266Z,74.80
2023-02-08T17:16:41.282Z,74.70
2023-02-08T17:19:17.874Z,74.70
2023-02-08T17:21:47.128Z,74.80
2023-02-08T17:24:16.005Z,74.60
2023-02-08T17:26:46.115Z,75.10
2023-02-08T17:29:15.176Z,75.00
2023-02-08T17:31:44.164Z,75.00
2023-02-08T17:34:13.314Z,74.90
2023-02-08T17:36:42.811Z,74.90
2023-02-08T17:39:12.767Z,75.20
2023-02-08T17:41:42.315Z,75.20
2023-02-08T17:44:13.993Z,75.30
2023-02-08T17:46:43.841Z,75.20
2023-02-08T17:49:13.148Z,75.00
2023-02-08T17:51:42.012Z,75.30
2023-02-08T17:54:12.313Z,75.70
2023-02-08T17:56:41.269Z,75.60
2023-02-08T17:59:10.188Z,75.50
2023-02-08T18:01:39.222Z,75.50
2023-02-08T18:04:10.408Z,75.70
2023-02-08T18:06:39.329Z,75.70
2023-02-08T18:09:08.238Z,75.60
2023-02-08T18:11:37.144Z,75.70
2023-02-08T18:14:06.023Z,75.70
2023-02-08T18:16:37.076Z,75.80
2023-02-08T18:19:06.034Z,75.80
2023-02-08T18:21:35.171Z,75.90
2023-02-08T18:24:07.984Z,75.90
2023-02-08T18:26:37.057Z,76.10
2023-02-08T18:29:24.394Z,76.10
2023-02-08T18:31:54.108Z,76.70
2023-02-08T18:34:23.071Z,77.00
2023-02-08T18:36:52.006Z,76.40
2023-02-08T18:39:24.230Z,76.40
2023-02-08T18:41:53.529Z,76.40
2023-02-08T18:44:22.475Z,76.60
2023-02-08T18:46:52.431Z,76.70
2023-02-08T18:49:21.451Z,77.00
2023-02-08T18:51:50.346Z,77.20
2023-02-08T18:54:19.894Z,77.50
2023-02-08T18:56:52.128Z,77.70
2023-02-08T18:59:21.205Z,77.50
2023-02-08T19:01:50.148Z,77.60
2023-02-08T19:04:19.072Z,78.00
2023-02-08T19:06:48.363Z,77.70
2023-02-08T19:09:17.329Z,77.70
2023-02-08T19:11:47.154Z,77.90
2023-02-08T19:14:16.896Z,77.90
2023-02-08T19:16:46.379Z,78.00
2023-02-08T19:19:15.309Z,77.90
2023-02-08T19:21:44.338Z,78.00
2023-02-08T19:24:16.496Z,78.10
2023-02-08T19:26:45.457Z,77.90
2023-02-08T19:29:16.875Z,78.00
2023-02-08T19:31:47.320Z,78.00
2023-02-08T19:34:16.756Z,78.10
2023-02-08T19:36:50.342Z,78.10
2023-02-08T19:39:22.570Z,78.20
2023-02-08T19:41:52.113Z,78.30
2023-02-08T19:44:21.652Z,78.20
2023-02-08T19:46:52.640Z,78.30
2023-02-08T19:49:22.747Z,78.30
2023-02-08T19:51:51.733Z,78.30
2023-02-08T19:54:22.009Z,78.40
2023-02-08T19:56:55.764Z,78.30
2023-02-08T19:59:26.684Z,78.40
2023-02-08T20:01:56.590Z,80.60
2023-02-08T20:04:25.791Z,78.80
2023-02-08T20:06:55.964Z,78.80
2023-02-08T20:09:24.896Z,78.60
2023-02-08T20:11:57.965Z,78.70
2023-02-08T20:14:34.026Z,78.60
2023-02-08T20:17:04.177Z,78.80
2023-02-08T20:19:33.151Z,78.80
2023-02-08T20:22:02.083Z,78.90
2023-02-08T20:24:31.137Z,78.80
2023-02-08T20:27:00.142Z,78.90
2023-02-08T20:29:29.818Z,78.90
2023-02-08T20:31:59.200Z,79.00
2023-02-08T20:34:29.510Z,79.00
2023-02-08T20:37:07.382Z,79.20
2023-02-08T20:39:38.285Z,79.20
2023-02-08T20:42:07.909Z,79.50
2023-02-08T20:44:37.049Z,79.40
2023-02-08T20:47:06.234Z,79.30
2023-02-08T20:49:35.280Z,79.40
2023-02-08T20:52:04.228Z,79.40
2023-02-08T20:54:33.179Z,79.40
2023-02-08T20:57:02.174Z,79.50
2023-02-08T20:59:31.177Z,79.50
2023-02-08T21:02:00.233Z,79.30
2023-02-08T21:04:29.186Z,79.40
2023-02-08T21:06:58.268Z,79.40
2023-02-08T21:09:27.234Z,79.50
2023-02-08T21:11:56.177Z,79.60
2023-02-08T21:14:26.066Z,79.70
2023-02-08T21:16:57.702Z,80.20
2023-02-08T21:19:28.320Z,79.90
2023-02-08T21:22:00.300Z,79.90
2023-02-08T21:24:30.597Z,79.90
2023-02-08T21:27:00.112Z,80.00
2023-02-08T21:29:30.629Z,79.90
2023-02-08T21:31:59.843Z,79.90
2023-02-08T21:34:28.955Z,80.00
2023-02-08T21:36:57.835Z,80.20
2023-02-08T21:39:26.795Z,80.10
2023-02-08T21:41:56.537Z,80.20
2023-02-08T21:44:25.555Z,80.20
2023-02-08T21:46:54.529Z,80.20
2023-02-08T21:49:41.824Z,80.10
2023-02-08T21:52:31.248Z,80.10
2023-02-08T21:55:00.123Z,80.10
2023-02-08T21:57:31.721Z,80.30
2023-02-08T22:00:06.115Z,80.50
2023-02-08T22:02:35.696Z,80.50
2023-02-08T22:05:06.185Z,80.60
2023-02-08T22:07:56.138Z,80.50
2023-02-08T22:10:28.763Z,80.80
2023-02-08T22:12:58.475Z,80.70
2023-02-08T22:15:30.239Z,80.90
2023-02-08T22:18:01.854Z,80.70
2023-02-08T22:20:31.474Z,81.60
2023-02-08T22:23:00.545Z,80.90
2023-02-08T22:25:29.620Z,80.90
2023-02-08T22:27:58.586Z,81.10
2023-02-08T22:30:27.595Z,81.40
2023-02-08T22:32:56.597Z,81.50
2023-02-08T22:35:25.645Z,81.70
2023-02-08T22:37:54.643Z,81.70
2023-02-08T22:40:23.753Z,81.70
2023-02-08T22:42:52.883Z,81.70
2023-02-08T22:45:21.916Z,81.50
2023-02-08T22:47:50.922Z,81.70
2023-02-08T22:50:19.895Z,81.70
2023-02-08T22:52:48.795Z,81.50
2023-02-08T22:55:17.814Z,81.50
2023-02-08T22:57:46.810Z,81.60
2023-02-08T23:00:16.842Z,81.50
2023-02-08T23:02:46.049Z,81.40
2023-02-08T23:05:15.687Z,82.20
2023-02-08T23:07:44.636Z,81.30
2023-02-08T23:10:14.238Z,81.60
2023-02-08T23:12:43.233Z,81.30
2023-02-08T23:15:12.848Z,81.40
2023-02-08T23:17:41.856Z,81.40
2023-02-08T23:20:11.880Z,81.50
2023-02-08T23:22:40.813Z,81.60
2023-02-08T23:25:10.121Z,81.40
2023-02-08T23:27:39.243Z,81.50
2023-02-08T23:30:09.644Z,81.80
2023-02-08T23:32:38.811Z,81.80
2023-02-08T23:35:09.519Z,81.90
2023-02-08T23:37:38.987Z,82.10
2023-02-08T23:40:08.314Z,82.20
2023-02-08T23:42:37.242Z,82.10
2023-02-08T23:45:06.839Z,82.10
2023-02-08T23:47:35.924Z,82.60
2023-02-08T23:50:04.995Z,82.90
2023-02-08T23:52:36.035Z,82.80
2023-02-08T23:55:05.961Z,83.00
2023-02-08T23:57:39.408Z,83.50
